createdAt,value
2022-08-11T00:01:19.164Z,99731.16
2022-08-11T00:03:49.080Z,99743.50
2022-08-11T00:06:24.111Z,99734.13
2022-08-11T00:08:51.979Z,99725.53
2022-08-11T00:11:19.643Z,99726.47
2022-08-11T00:13:47.817Z,99724.03
2022-08-11T00:16:20.804Z,99728.38
2022-08-11T00:18:50.513Z,99738.16
2022-08-11T00:21:18.485Z,99727.09
2022-08-11T00:23:57.613Z,99734.19
2022-08-11T00:26:25.688Z,99733.44
2022-08-11T00:28:53.248Z,99731.81
2022-08-11T00:31:29.102Z,99723.22
2022-08-11T00:33:56.968Z,99736.44
2022-08-11T00:36:29.039Z,99736.50
2022-08-11T00:38:56.903Z,99735.75
2022-08-11T00:41:46.580Z,99736.84
2022-08-11T00:44:49.573Z,99734.38
2022-08-11T00:47:36.492Z,99729.41
2022-08-11T00:50:23.195Z,99726.09
2022-08-11T00:53:13.596Z,99734.91
2022-08-11T00:56:13.820Z,99726.41
2022-08-11T00:58:50.966Z,99723.88
2022-08-11T01:01:21.780Z,99731.78
2022-08-11T01:04:17.968Z,99733.66
2022-08-11T01:07:05.903Z,99730.34
2022-08-11T01:10:41.157Z,99729.75
2022-08-11T01:13:11.173Z,99722.84
2022-08-11T01:15:55.812Z,99730.19
2022-08-11T01:19:04.556Z,99730.25
2022-08-11T01:21:57.314Z,99728.56
2022-08-11T01:24:43.506Z,99721.75
2022-08-11T01:27:27.758Z,99729.53
2022-08-11T01:30:19.084Z,99727.09
2022-08-11T01:33:28.105Z,99728.19
2022-08-11T01:36:34.075Z,99726.44
2022-08-11T01:39:13.657Z,99719.59
2022-08-11T01:42:12.813Z,99721.44
2022-08-11T01:45:05.664Z,99713.72
2022-08-11T01:47:52.539Z,99720.84
2022-08-11T01:51:09.495Z,99720.94
2022-08-11T01:54:07.366Z,99719.44
2022-08-11T01:56:48.228Z,99720.28
2022-08-11T01:59:37.908Z,99717.88
2022-08-11T02:02:43.777Z,99713.63
2022-08-11T02:05:37.755Z,99719.81
2022-08-11T02:08:15.760Z,99711.25
2022-08-11T02:11:16.396Z,99708.69
2022-08-11T02:14:22.765Z,99709.84
2022-08-11T02:17:04.256Z,99708.94
2022-08-11T02:20:15.740Z,99712.50
2022-08-11T02:23:13.408Z,99712.59
2022-08-11T02:26:15.887Z,99714.47
2022-08-11T02:28:58.706Z,99712.84
2022-08-11T02:32:25.168Z,99711.19
2022-08-11T02:35:02.134Z,99709.56
2022-08-11T02:37:32.672Z,99706.94
2022-08-11T02:40:03.628Z,99716.56
2022-08-11T02:42:57.474Z,99721.03
2022-08-11T02:45:40.189Z,99715.00
2022-08-11T02:48:41.236Z,99715.09
2022-08-11T02:51:34.394Z,99723.88
2022-08-11T02:54:13.325Z,99716.97
2022-08-11T02:57:11.251Z,99716.13
2022-08-11T02:59:50.833Z,99712.84
2022-08-11T03:02:41.743Z,99714.53
2022-08-11T03:05:12.609Z,99716.31
2022-08-11T03:08:12.907Z,99711.25
2022-08-11T03:11:12.424Z,99719.09
2022-08-11T03:14:02.406Z,99711.44
2022-08-11T03:16:47.679Z,99711.47
2022-08-11T03:19:33.468Z,99718.53
2022-08-11T03:22:23.964Z,99716.91
2022-08-11T03:25:11.008Z,99713.44
2022-08-11T03:28:10.287Z,99717.97
2022-08-11T03:30:40.920Z,99725.78
2022-08-11T03:33:39.509Z,99716.28
2022-08-11T03:36:19.150Z,99725.03
2022-08-11T03:39:11.507Z,99723.44
2022-08-11T03:42:06.809Z,99717.50
2022-08-11T03:44:57.975Z,99723.53
2022-08-11T03:47:52.284Z,99725.41
2022-08-11T03:50:44.850Z,99717.69
2022-08-11T03:53:34.837Z,99725.50
2022-08-11T03:56:14.276Z,99718.63
2022-08-11T03:59:05.268Z,99718.63
2022-08-11T04:01:51.617Z,99725.66
2022-08-11T04:05:17.822Z,99730.16
2022-08-11T04:07:45.682Z,99717.22
2022-08-11T04:10:43.845Z,99718.03
2022-08-11T04:13:49.213Z,99713.84
2022-08-11T04:16:32.027Z,99715.59
2022-08-11T04:19:22.524Z,99721.66
2022-08-11T04:22:05.753Z,99720.84
2022-08-11T04:25:11.716Z,99720.88
2022-08-11T04:28:29.369Z,99719.28
2022-08-11T04:30:58.955Z,99707.13
2022-08-11T04:34:00.922Z,99712.34
2022-08-11T04:37:24.600Z,99717.53
2022-08-11T04:39:55.291Z,99714.94
2022-08-11T04:43:12.257Z,99722.72
2022-08-11T04:46:12.884Z,99725.41
2022-08-11T04:49:46.699Z,99720.19
2022-08-11T04:53:00.550Z,99718.44
2022-08-11T04:56:13.467Z,99721.91
2022-08-11T04:59:11.749Z,99725.28
2022-08-11T05:01:59.947Z,99715.72
2022-08-11T05:04:55.611Z,99726.00
2022-08-11T05:08:07.719Z,99720.81
2022-08-11T05:10:53.813Z,99727.66
2022-08-11T05:14:02.843Z,99725.75
2022-08-11T05:17:15.253Z,99728.31
2022-08-11T05:20:05.146Z,99723.03
2022-08-11T05:22:51.439Z,99729.00
2022-08-11T05:26:42.619Z,99727.97
2022-08-11T05:28:56.193Z,99728.69
2022-08-11T05:31:45.872Z,99725.13
2022-08-11T05:34:35.345Z,99733.59
2022-08-11T05:37:34.466Z,99729.22
2022-08-11T05:40:31.503Z,99724.63
2022-08-11T05:43:22.403Z,99722.75
2022-08-11T05:46:21.604Z,99724.28
2022-08-11T05:49:08.108Z,99725.88
2022-08-11T05:52:04.877Z,99730.81
2022-08-11T05:54:58.835Z,99726.38
2022-08-11T05:57:50.389Z,99724.38
2022-08-11T06:00:20.149Z,99720.69
2022-08-11T06:02:51.619Z,99715.19
2022-08-11T06:05:26.247Z,99714.13
2022-08-11T06:07:55.676Z,99707.75
2022-08-11T06:10:47.597Z,99712.75
2022-08-11T06:13:16.675Z,99720.31
2022-08-11T06:15:45.983Z,99717.44
2022-08-11T07:11:41.561Z,99686.03
2022-08-11T07:14:27.881Z,99685.53
2022-08-11T07:16:57.083Z,99679.72
2022-08-11T07:19:46.538Z,99673.06
2022-08-11T07:22:35.926Z,99679.59
2022-08-11T07:25:29.173Z,99683.41
2022-08-11T07:28:25.745Z,99669.97
2022-08-11T07:31:05.861Z,99669.50
2022-08-11T07:34:08.168Z,99669.75
2022-08-11T07:36:45.945Z,99664.13
2022-08-11T07:39:22.145Z,99656.44
2022-08-11T07:41:52.028Z,99658.63
2022-08-11T07:44:20.089Z,99658.16
2022-08-11T07:47:10.493Z,99660.91
2022-08-11T07:49:58.430Z,99655.31
2022-08-11T07:52:33.522Z,99652.38
2022-08-11T07:55:08.646Z,99657.84
2022-08-11T07:57:58.546Z,99651.22
2022-08-11T08:01:10.055Z,99659.50
2022-08-11T08:03:58.855Z,99643.53
2022-08-11T08:06:46.766Z,99650.75
2022-08-11T08:09:33.680Z,99647.56
2022-08-11T08:12:21.316Z,99636.53
2022-08-11T08:15:08.940Z,99644.75
2022-08-11T08:18:10.028Z,99630.28
2022-08-11T08:20:47.715Z,99630.66
2022-08-11T08:23:16.267Z,99616.91
2022-08-11T08:25:45.515Z,99618.09
2022-08-11T08:28:16.923Z,99617.50
2022-08-11T08:30:48.787Z,99612.94
2022-08-11T08:33:27.298Z,99606.38
2022-08-11T08:36:12.645Z,99609.44
2022-08-11T08:38:51.503Z,99605.53
2022-08-11T08:41:26.639Z,99613.69
2022-08-11T08:44:27.357Z,99607.22
2022-08-11T08:46:54.539Z,99594.50
2022-08-11T08:49:34.064Z,99595.88
2022-08-11T08:52:33.205Z,99585.75
2022-08-11T08:54:55.198Z,99590.66
2022-08-11T08:57:24.600Z,99585.72
2022-08-11T08:59:53.384Z,99575.63
2022-08-11T09:02:44.048Z,99581.03
2022-08-11T09:05:12.369Z,99584.34
2022-08-11T09:07:41.417Z,99582.75
2022-08-11T09:10:12.099Z,99584.88
2022-08-11T09:12:42.226Z,99579.78
2022-08-11T09:15:12.672Z,99580.06
2022-08-11T09:17:52.183Z,99569.78
2022-08-11T09:20:20.132Z,99580.69
2022-08-11T09:26:16.306Z,99576.09
2022-08-11T09:28:45.406Z,99575.31
2022-08-11T09:31:14.129Z,99576.34
2022-08-11T09:33:44.110Z,99564.06
2022-08-11T09:36:34.511Z,99571.97
2022-08-11T09:39:21.485Z,99578.38
2022-08-11T09:42:00.390Z,99567.03
2022-08-11T09:44:50.244Z,99560.28
2022-08-11T09:47:30.388Z,99562.25
2022-08-11T09:50:02.693Z,99561.34
2022-08-11T09:52:33.187Z,99559.16
2022-08-11T09:55:01.876Z,99571.63
2022-08-11T09:57:48.371Z,99565.06
2022-08-11T10:00:17.983Z,99563.72
2022-08-11T10:02:49.534Z,99553.38
2022-08-11T10:05:41.710Z,99549.25
2022-08-11T10:08:12.746Z,99547.91
2022-08-11T10:10:41.298Z,99541.78
2022-08-11T10:14:32.596Z,99530.22
2022-08-11T10:16:16.230Z,99523.47
2022-08-11T10:18:53.542Z,99532.09
2022-08-11T10:21:36.052Z,99528.47
2022-08-11T10:24:24.396Z,99519.47
2022-08-11T10:27:00.078Z,99514.28
2022-08-11T10:29:50.965Z,99512.97
2022-08-11T10:32:57.315Z,99510.63
2022-08-11T10:35:27.960Z,99506.59
2022-08-11T10:38:07.600Z,99494.97
2022-08-11T10:40:41.511Z,99500.41
2022-08-11T10:43:53.339Z,99491.38
2022-08-11T10:46:25.740Z,99497.00
2022-08-11T10:48:59.910Z,99492.19
2022-08-11T10:51:51.126Z,99495.09
2022-08-11T10:54:39.968Z,99502.72
2022-08-11T10:57:27.941Z,99496.09
2022-08-11T10:59:58.538Z,99493.22
2022-08-11T11:02:28.257Z,99486.50
2022-08-11T11:05:25.708Z,99481.53
2022-08-11T11:08:41.526Z,99490.22
2022-08-11T11:11:11.212Z,99484.69
2022-08-11T11:14:11.542Z,99486.75
2022-08-11T11:16:59.377Z,99489.38
2022-08-11T11:19:28.267Z,99482.81
2022-08-11T11:22:17.029Z,99471.84
2022-08-11T11:24:53.915Z,99471.59
2022-08-11T11:27:53.922Z,99471.13
2022-08-11T11:30:22.404Z,99475.09
2022-08-11T11:33:10.033Z,99480.50
2022-08-11T11:35:56.747Z,99478.84
2022-08-11T11:38:26.128Z,99472.69
2022-08-11T11:41:14.907Z,99461.59
2022-08-11T11:43:44.819Z,99477.50
2022-08-11T11:46:15.053Z,99471.00
2022-08-11T11:48:44.345Z,99472.91
2022-08-11T11:51:16.207Z,99454.59
2022-08-11T11:53:45.823Z,99456.28
2022-08-11T11:56:14.499Z,99449.53
2022-08-11T11:59:01.623Z,99461.59
2022-08-11T12:01:30.921Z,99460.16
2022-08-11T12:04:00.118Z,99447.03
2022-08-11T12:06:28.699Z,99447.88
2022-08-11T12:08:58.421Z,99445.66
2022-08-11T12:11:46.053Z,99449.31
2022-08-11T12:14:14.440Z,99444.97
2022-08-11T12:16:44.240Z,99435.78
2022-08-11T12:19:23.396Z,99440.97
2022-08-11T12:22:13.250Z,99447.13
2022-08-11T12:24:59.866Z,99436.53
2022-08-11T12:27:28.665Z,99447.94
2022-08-11T12:30:07.370Z,99447.72
2022-08-11T12:32:36.898Z,99432.03
2022-08-11T12:35:06.583Z,99424.81
2022-08-11T12:37:45.103Z,99433.50
2022-08-11T12:40:43.207Z,99418.78
2022-08-11T12:43:42.690Z,99426.97
2022-08-11T12:46:22.946Z,99424.47
2022-08-11T12:49:13.649Z,99419.88
2022-08-11T12:52:11.423Z,99424.47
2022-08-11T12:55:01.706Z,99418.56
2022-08-11T12:57:57.017Z,99419.75
2022-08-11T13:00:44.139Z,99428.09
2022-08-11T13:03:31.669Z,99416.63
2022-08-11T13:06:04.551Z,99412.91
2022-08-11T13:08:38.662Z,99410.50
2022-08-11T13:11:56.446Z,99406.88
2022-08-11T13:14:15.556Z,99406.25
2022-08-11T13:17:02.284Z,99402.66
2022-08-11T13:19:30.858Z,99401.81
2022-08-11T13:21:58.773Z,99403.50
2022-08-11T13:24:26.897Z,99403.84
2022-08-11T13:26:55.281Z,99402.91
2022-08-11T13:29:28.268Z,99404.22
2022-08-11T13:32:00.377Z,99400.50
2022-08-11T13:34:29.733Z,99402.69
2022-08-11T13:36:59.362Z,99408.25
2022-08-11T13:39:29.920Z,99409.31
2022-08-11T13:42:00.226Z,99402.44
2022-08-11T13:44:29.196Z,99404.38
2022-08-11T13:46:59.626Z,99401.34
2022-08-11T13:49:29.443Z,99406.03
2022-08-11T13:51:57.575Z,99391.81
2022-08-11T13:54:31.312Z,99393.88
2022-08-11T13:58:05.946Z,99393.28
2022-08-11T14:00:13.223Z,99388.31
2022-08-11T14:02:52.938Z,99391.56
2022-08-11T14:05:23.812Z,99389.97
2022-08-11T14:08:01.205Z,99382.28
2022-08-11T14:10:31.132Z,99383.69
2022-08-11T14:13:21.826Z,99376.47
2022-08-11T14:15:50.522Z,99369.94
2022-08-11T14:18:22.877Z,99365.59
2022-08-11T14:21:18.191Z,99358.25
2022-08-11T14:24:01.474Z,99361.09
2022-08-11T14:26:29.899Z,99355.91
2022-08-11T14:29:18.251Z,99336.78
2022-08-11T14:32:04.143Z,99339.19
2022-08-11T14:34:35.304Z,99332.81
2022-08-11T14:37:12.054Z,99331.75
2022-08-11T14:39:49.176Z,99326.59
2022-08-11T14:42:37.295Z,99329.22
2022-08-11T14:45:58.368Z,99340.63
2022-08-11T14:48:18.584Z,99331.38
2022-08-11T14:50:47.170Z,99326.69
2022-08-11T14:53:17.915Z,99328.25
2022-08-11T14:56:06.352Z,99328.25
2022-08-11T14:58:37.700Z,99345.09
2022-08-11T15:01:25.561Z,99340.50
2022-08-11T15:04:35.108Z,99335.56
2022-08-11T15:06:43.803Z,99331.13
2022-08-11T15:09:12.491Z,99332.00
2022-08-11T15:11:59.609Z,99331.03
2022-08-11T15:14:46.624Z,99338.22
2022-08-11T15:17:15.208Z,99333.91
2022-08-11T15:20:03.977Z,99333.03
2022-08-11T15:22:50.890Z,99338.56
2022-08-11T15:25:23.043Z,99340.72
2022-08-11T15:28:10.674Z,99338.19
2022-08-11T15:30:57.590Z,99337.59
2022-08-11T15:33:45.818Z,99334.22
2022-08-11T15:36:33.675Z,99335.25
2022-08-11T15:39:23.709Z,99342.34
2022-08-11T15:42:32.995Z,99342.94
2022-08-11T15:45:21.652Z,99340.50
2022-08-11T15:48:05.219Z,99337.00
2022-08-11T15:50:35.820Z,99330.28
2022-08-11T15:53:06.965Z,99325.94
2022-08-11T15:55:36.175Z,99327.94
2022-08-11T15:58:23.896Z,99335.75
2022-08-11T16:01:10.703Z,99331.06
2022-08-11T16:04:07.092Z,99333.09
2022-08-11T16:06:46.325Z,99323.81
2022-08-11T16:09:51.975Z,99329.44
2022-08-11T16:12:32.917Z,99336.72
2022-08-11T16:15:21.761Z,99330.75
2022-08-11T16:18:08.673Z,99338.59
2022-08-11T16:20:37.054Z,99336.06
2022-08-11T16:23:06.678Z,99339.72
2022-08-11T16:27:01.997Z,99340.81
2022-08-11T16:28:26.160Z,99331.72
2022-08-11T16:30:54.229Z,99334.38
2022-08-11T16:33:49.664Z,99339.16
2022-08-11T16:36:33.385Z,99328.41
2022-08-11T16:39:01.763Z,99327.16
2022-08-11T16:41:49.599Z,99331.59
2022-08-11T16:44:38.297Z,99333.09
2022-08-11T16:47:07.603Z,99339.53
2022-08-11T16:49:52.715Z,99345.03
2022-08-11T16:52:22.234Z,99336.94
2022-08-11T16:54:50.192Z,99338.59
2022-08-11T16:57:45.019Z,99344.94
2022-08-11T17:00:17.475Z,99348.09
2022-08-11T17:03:11.961Z,99343.84
2022-08-11T17:06:01.334Z,99344.50
2022-08-11T17:09:09.753Z,99359.81
2022-08-11T17:12:01.682Z,99363.63
2022-08-11T17:14:50.029Z,99370.25
2022-08-11T17:17:28.547Z,99361.81
2022-08-11T17:20:40.769Z,99366.34
2022-08-11T17:23:04.629Z,99366.88
2022-08-11T17:26:00.433Z,99380.38
2022-08-11T17:28:20.741Z,99376.53
2022-08-11T17:31:18.525Z,99375.78
2022-08-11T17:34:25.697Z,99383.47
2022-08-11T17:36:55.102Z,99381.94
2022-08-11T17:39:25.302Z,99377.72
2022-08-11T17:42:12.033Z,99378.16
2022-08-11T17:44:58.647Z,99383.81
2022-08-11T17:47:45.966Z,99384.41
2022-08-11T17:50:16.902Z,99386.50
2022-08-11T17:53:05.681Z,99380.59
2022-08-11T17:55:53.619Z,99386.25
2022-08-11T17:58:40.612Z,99383.06
2022-08-11T18:01:09.749Z,99388.72
2022-08-11T18:03:40.280Z,99385.34
2022-08-11T18:06:12.851Z,99390.00
2022-08-11T18:09:03.728Z,99398.31
2022-08-11T18:12:10.409Z,99398.91
2022-08-11T18:14:59.444Z,99404.75
2022-08-11T18:17:46.179Z,99395.50
2022-08-11T18:20:32.473Z,99399.47
2022-08-11T18:23:18.777Z,99399.69
2022-08-11T18:26:07.448Z,99405.22
2022-08-11T18:29:04.891Z,99415.09
2022-08-11T18:31:56.007Z,99419.97
2022-08-11T18:34:49.799Z,99421.19
2022-08-11T18:37:39.151Z,99418.81
2022-08-11T18:40:35.819Z,99408.00
2022-08-11T18:43:27.275Z,99418.78
2022-08-11T18:46:24.061Z,99421.72
2022-08-11T18:49:15.871Z,99414.28
2022-08-11T18:55:32.893Z,99422.78
2022-08-11T18:58:19.988Z,99425.69
2022-08-11T19:01:05.612Z,99425.19
2022-08-11T19:03:51.167Z,99431.47
2022-08-11T19:06:40.717Z,99426.56
2022-08-11T19:09:28.987Z,99432.88
2022-08-11T19:12:16.291Z,99431.50
2022-08-11T19:15:01.841Z,99429.97
2022-08-11T19:17:47.385Z,99422.34
2022-08-11T19:20:35.853Z,99435.50
2022-08-11T19:23:21.900Z,99429.91
2022-08-11T19:26:07.418Z,99435.25
2022-08-11T19:28:53.988Z,99438.97
2022-08-11T19:31:44.022Z,99428.81
2022-08-11T19:34:40.298Z,99422.13
2022-08-11T19:37:27.186Z,99429.34
2022-08-11T19:40:13.617Z,99427.75
2022-08-11T19:43:01.136Z,99425.41
2022-08-11T19:45:52.304Z,99423.81
2022-08-11T19:48:41.809Z,99413.56
2022-08-11T19:51:46.309Z,99407.81
2022-08-11T19:54:32.383Z,99422.75
2022-08-11T19:57:18.440Z,99416.97
2022-08-11T20:00:04.061Z,99424.84
2022-08-11T20:02:49.750Z,99424.00
2022-08-11T20:05:35.151Z,99418.28
2022-08-11T20:08:23.052Z,99419.13
2022-08-11T20:11:08.519Z,99421.16
2022-08-11T20:13:54.096Z,99410.81
2022-08-11T20:16:39.490Z,99411.94
2022-08-11T20:19:26.357Z,99418.09
2022-08-11T20:22:30.584Z,99414.19
2022-08-11T20:25:16.165Z,99406.41
2022-08-11T20:28:02.361Z,99418.59
2022-08-11T20:30:48.933Z,99426.63
2022-08-11T20:33:37.468Z,99425.19
2022-08-11T20:36:23.102Z,99424.41
2022-08-11T20:39:08.546Z,99420.50
2022-08-11T20:41:59.305Z,99429.22
2022-08-11T20:44:45.491Z,99431.31
2022-08-11T20:47:30.997Z,99426.31
2022-08-11T20:50:19.552Z,99429.78
2022-08-11T20:53:05.960Z,99422.41
2022-08-11T21:02:03.276Z,99436.91
2022-08-11T21:04:54.770Z,99430.09
2022-08-11T21:07:41.456Z,99427.78
2022-08-11T21:10:27.866Z,99428.69
2022-08-11T21:13:23.990Z,99430.69
2022-08-11T21:16:16.345Z,99424.88
2022-08-11T21:20:00.388Z,99431.16
2022-08-11T21:22:40.482Z,99432.41
2022-08-11T21:25:45.122Z,99445.75
2022-08-11T21:28:30.634Z,99446.59
2022-08-11T21:31:16.565Z,99444.13
2022-08-11T21:34:02.090Z,99435.81
2022-08-11T21:36:47.757Z,99452.28
2022-08-11T21:39:35.992Z,99463.84
2022-08-11T21:42:22.017Z,99459.75
2022-08-11T21:45:07.460Z,99459.06
2022-08-11T21:48:01.071Z,99459.22
2022-08-11T21:50:47.177Z,99460.50
2022-08-11T21:53:33.061Z,99457.44
2022-08-11T21:56:20.078Z,99463.50
2022-08-11T21:59:07.291Z,99457.50
2022-08-11T22:01:52.983Z,99468.84
2022-08-11T22:04:38.941Z,99469.00
2022-08-11T22:07:24.525Z,99468.28
2022-08-11T22:10:41.632Z,99470.97
2022-08-11T22:13:15.439Z,99469.56
2022-08-11T22:16:00.945Z,99457.38
2022-08-11T22:18:46.424Z,99466.16
2022-08-11T22:22:01.233Z,99467.22
2022-08-11T22:24:43.214Z,99463.19
2022-08-11T22:27:28.733Z,99459.78
2022-08-11T22:30:14.178Z,99456.44
2022-08-11T22:33:02.619Z,99461.78
2022-08-11T22:35:49.167Z,99457.59
2022-08-11T22:38:35.483Z,99457.91
2022-08-11T22:41:21.737Z,99456.44
2022-08-11T22:44:07.258Z,99462.63
2022-08-11T22:46:52.855Z,99450.69
2022-08-11T22:49:57.609Z,99456.94
2022-08-11T22:52:44.998Z,99460.72
2022-08-11T22:55:30.418Z,99453.13
2022-08-11T22:58:15.873Z,99458.44
2022-08-11T23:01:01.426Z,99455.22
2022-08-11T23:03:47.029Z,99458.75
2022-08-11T23:06:32.719Z,99455.47
2022-08-11T23:09:18.165Z,99447.06
2022-08-11T23:12:06.782Z,99452.41
2022-08-11T23:14:55.954Z,99457.84
2022-08-11T23:17:41.853Z,99456.25
2022-08-11T23:20:35.010Z,99451.19
2022-08-11T23:23:33.524Z,99449.75
2022-08-11T23:26:19.044Z,99438.50
2022-08-11T23:29:05.144Z,99444.88
2022-08-11T23:31:53.917Z,99450.16
2022-08-11T23:35:03.733Z,99439.97
2022-08-11T23:37:54.285Z,99448.09
2022-08-11T23:40:39.888Z,99448.09
2022-08-11T23:43:26.105Z,99443.94
2022-08-11T23:46:11.889Z,99435.44
2022-08-11T23:48:57.412Z,99435.63
2022-08-11T23:51:42.771Z,99439.16
2022-08-11T23:54:31.551Z,99438.53
2022-08-11T23:57:20.502Z,99431.81
